Time;durP1;ratioP1;P1;durP2;ratioP2;P2;SDS_P1;SDS_P2;PMS_P1;PMS_P2;Temp;Humidity;BMP_temperature;BMP_pressure;BME280_temperature;BME280_humidity;BME280_pressure;Samples;Min_cycle;Max_cycle;Signal;HPM_P1;HPM_P2
2023/01/19 00:00:09;;;;;;;22.25;12.13;;;1.80;99.90;;;;;;5105802;28;20028;-75
2023/01/19 00:02:35;;;;;;;23.50;12.23;;;1.80;99.90;;;;;;5101911;28;20034;-75
2023/01/19 00:05:02;;;;;;;23.77;13.68;;;1.80;99.90;;;;;;5087608;28;20033;-74
2023/01/19 00:07:31;;;;;;;21.80;12.90;;;1.80;99.90;;;;;;5087887;28;20449;-74
2023/01/19 00:09:57;;;;;;;19.55;12.63;;;1.80;99.90;;;;;;5091615;28;20026;-74
2023/01/19 00:12:24;;;;;;;22.10;12.35;;;1.90;99.90;;;;;;5092234;28;20024;-74
2023/01/19 00:14:49;;;;;;;23.13;12.52;;;1.90;99.90;;;;;;5106937;28;20038;-75
2023/01/19 00:17:15;;;;;;;24.00;12.02;;;1.90;99.90;;;;;;5087165;27;20032;-74
2023/01/19 00:19:41;;;;;;;21.73;12.60;;;1.90;99.90;;;;;;5107967;28;20102;-74
2023/01/19 00:22:06;;;;;;;22.25;13.25;;;2.00;99.90;;;;;;5088836;28;20040;-73
2023/01/19 00:24:32;;;;;;;23.60;12.50;;;2.00;99.90;;;;;;5089644;28;20027;-76
2023/01/19 00:26:59;;;;;;;22.70;12.18;;;2.00;99.90;;;;;;5076895;28;20015;-74
2023/01/19 00:29:24;;;;;;;21.35;12.43;;;2.00;99.90;;;;;;5069119;28;20027;-74
2023/01/19 00:31:50;;;;;;;21.75;12.38;;;2.00;99.90;;;;;;5089757;28;20016;-75
2023/01/19 00:34:16;;;;;;;22.10;12.45;;;2.00;99.90;;;;;;5091083;28;20059;-73
2023/01/19 00:36:42;;;;;;;22.27;12.82;;;2.00;99.90;;;;;;5090135;28;20035;-75
2023/01/19 00:39:08;;;;;;;19.42;11.93;;;2.00;99.90;;;;;;5089828;28;20036;-74
2023/01/19 00:44:18;;;;;;;22.17;12.13;;;2.00;99.90;;;;;;5111889;28;20036;-75
2023/01/19 00:46:43;;;;;;;25.23;12.40;;;2.00;99.90;;;;;;5107270;28;20089;-76
2023/01/19 00:49:09;;;;;;;20.98;12.55;;;2.00;99.90;;;;;;5107880;28;20110;-74
2023/01/19 00:51:35;;;;;;;25.70;12.73;;;2.00;99.90;;;;;;5086808;28;20019;-74
2023/01/19 00:54:03;;;;;;;24.02;12.25;;;2.10;99.90;;;;;;5092711;28;20103;-74
2023/01/19 00:56:30;;;;;;;20.90;12.30;;;2.00;99.90;;;;;;5085720;28;20026;-73
2023/01/19 00:58:56;;;;;;;21.70;12.55;;;2.10;99.90;;;;;;5105230;27;20024;-77
2023/01/19 01:01:22;;;;;;;21.33;12.75;;;2.10;99.90;;;;;;5082971;28;20028;-74
2023/01/19 01:03:48;;;;;;;18.67;11.75;;;2.10;99.90;;;;;;5090235;28;20034;-72
2023/01/19 01:06:13;;;;;;;21.20;12.63;;;2.10;99.90;;;;;;5108602;28;20554;-74
2023/01/19 01:08:39;;;;;;;22.15;12.85;;;2.10;99.90;;;;;;5109110;28;20034;-74
2023/01/19 01:11:05;;;;;;;22.85;13.45;;;2.10;99.90;;;;;;5087707;28;20395;-74
2023/01/19 01:13:31;;;;;;;22.35;12.05;;;2.10;99.90;;;;;;5109411;28;20089;-73
2023/01/19 01:15:56;;;;;;;21.13;12.27;;;2.10;99.90;;;;;;5082066;28;20019;-73
2023/01/19 01:18:23;;;;;;;25.33;12.32;;;2.20;99.90;;;;;;5106510;28;20035;-76
2023/01/19 01:20:49;;;;;;;26.17;13.15;;;2.20;99.90;;;;;;5106987;28;20074;-74
2023/01/19 01:23:14;;;;;;;23.15;12.50;;;2.20;99.90;;;;;;5088923;28;20019;-75
2023/01/19 01:25:41;;;;;;;24.77;12.70;;;2.20;99.90;;;;;;5084949;28;20506;-73
2023/01/19 01:28:08;;;;;;;21.38;12.00;;;2.20;99.90;;;;;;5087108;28;20082;-74
2023/01/19 01:30:38;;;;;;;21.45;11.98;;;2.20;99.90;;;;;;5089281;28;20420;-75
2023/01/19 01:33:04;;;;;;;19.90;12.07;;;2.20;99.90;;;;;;5091400;28;20020;-73
2023/01/19 01:35:32;;;;;;;21.60;11.75;;;2.20;99.90;;;;;;5091636;28;20019;-75
2023/01/19 01:37:58;;;;;;;22.08;12.85;;;2.20;99.90;;;;;;5091610;28;20103;-74
2023/01/19 01:40:24;;;;;;;20.80;12.20;;;2.20;99.90;;;;;;5107665;28;20479;-73
2023/01/19 01:42:50;;;;;;;23.02;12.65;;;2.20;99.90;;;;;;5087841;28;20042;-75
2023/01/19 01:45:32;;;;;;;21.83;12.30;;;2.20;99.90;;;;;;5088742;28;20057;-76
2023/01/19 01:48:09;;;;;;;23.48;12.73;;;2.30;99.90;;;;;;5085617;28;20027;-75
2023/01/19 01:51:22;;;;;;;23.67;13.05;;;2.30;99.90;;;;;;5107680;28;20020;-74
2023/01/19 01:53:29;;;;;;;20.75;12.88;;;2.30;99.90;;;;;;5107225;28;20031;-75
2023/01/19 01:55:55;;;;;;;18.65;11.57;;;2.30;99.90;;;;;;5068765;28;20042;-74
2023/01/19 01:58:21;;;;;;;21.30;12.35;;;2.30;99.90;;;;;;5110011;27;20023;-75
2023/01/19 02:03:31;;;;;;;19.27;11.05;;;2.30;99.90;;;;;;5113555;28;20084;-75
2023/01/19 02:06:00;;;;;;;19.50;11.93;;;2.30;99.90;;;;;;5110203;28;20024;-74
2023/01/19 02:14:04;;;;;;;18.25;11.82;;;2.30;99.90;;;;;;5105166;28;20154;-73
2023/01/19 02:16:30;;;;;;;21.20;12.23;;;2.40;99.90;;;;;;5086396;28;20111;-75
2023/01/19 02:18:56;;;;;;;19.52;11.77;;;2.40;99.90;;;;;;5072412;28;20407;-73
2023/01/19 02:22:19;;;;;;;18.50;11.85;;;2.40;99.90;;;;;;5086715;27;20035;-75
2023/01/19 02:24:45;;;;;;;21.55;11.82;;;2.40;99.90;;;;;;5016924;28;20029;-76
2023/01/19 02:27:11;;;;;;;21.58;11.85;;;2.40;99.90;;;;;;5084572;28;20036;-74
2023/01/19 02:29:38;;;;;;;24.05;12.98;;;2.40;99.90;;;;;;5106138;28;20024;-75
2023/01/19 02:32:05;;;;;;;23.30;11.95;;;2.40;99.90;;;;;;5084638;28;20039;-74
2023/01/19 02:34:31;;;;;;;20.50;12.43;;;2.40;99.90;;;;;;5087003;28;20387;-74
2023/01/19 02:36:59;;;;;;;21.70;11.93;;;2.40;99.90;;;;;;5087183;28;20114;-73
2023/01/19 02:39:33;;;;;;;22.85;12.32;;;2.40;99.90;;;;;;5087042;28;20035;-73
2023/01/19 02:42:05;;;;;;;19.50;11.80;;;2.40;99.90;;;;;;5106370;28;20023;-74
2023/01/19 02:44:32;;;;;;;19.38;11.45;;;2.40;99.90;;;;;;5068566;28;20039;-73
2023/01/19 02:46:58;;;;;;;19.05;11.70;;;2.40;99.90;;;;;;5104002;28;20110;-75
2023/01/19 02:49:27;;;;;;;23.60;12.45;;;2.40;99.90;;;;;;5105961;28;20107;-75
2023/01/19 02:51:53;;;;;;;19.65;11.95;;;2.40;99.90;;;;;;5104911;28;20114;-73
2023/01/19 02:54:37;;;;;;;21.40;12.15;;;2.50;99.90;;;;;;5071863;28;20393;-74
2023/01/19 02:57:28;;;;;;;22.35;12.60;;;2.50;99.90;;;;;;5088214;28;20059;-73
2023/01/19 03:00:01;;;;;;;;;;;2.50;99.90;;;;;;5106190;28;20410;-72
2023/01/19 03:02:51;;;;;;;19.17;11.30;;;2.50;99.90;;;;;;5085889;28;19918;-75
2023/01/19 03:05:32;;;;;;;22.65;12.55;;;2.50;99.90;;;;;;5102906;27;20043;-73
2023/01/19 03:08:07;;;;;;;;;;;2.50;99.90;;;;;;5108204;28;20057;-74
2023/01/19 03:11:06;;;;;;;21.80;12.15;;;2.50;99.90;;;;;;5085922;28;19915;-76
2023/01/19 03:13:57;;;;;;;23.40;12.75;;;2.50;99.90;;;;;;5087304;28;20034;-75
2023/01/19 03:16:50;;;;;;;22.15;12.63;;;2.50;99.90;;;;;;5087293;28;20110;-74
2023/01/19 03:19:23;;;;;;;23.42;12.20;;;2.50;99.90;;;;;;5070280;28;20035;-73
2023/01/19 03:21:57;;;;;;;21.15;13.23;;;2.50;99.90;;;;;;5105866;28;20031;-74
2023/01/19 03:24:25;;;;;;;22.40;12.52;;;2.50;99.90;;;;;;5089561;28;20537;-74
2023/01/19 03:27:05;;;;;;;19.13;12.50;;;2.50;99.90;;;;;;5107025;28;20028;-75
2023/01/19 03:29:33;;;;;;;20.83;13.13;;;2.50;99.90;;;;;;5086123;28;20609;-75
2023/01/19 03:32:05;;;;;;;21.70;12.85;;;2.50;99.90;;;;;;5094182;28;20096;-74
2023/01/19 03:34:31;;;;;;;25.27;12.63;;;2.40;99.90;;;;;;5110308;28;20074;-74
2023/01/19 03:37:02;;;;;;;22.65;13.48;;;2.50;99.90;;;;;;5104415;28;20068;-73
2023/01/19 03:39:28;;;;;;;;;;;2.50;99.90;;;;;;5088400;28;20619;-73
2023/01/19 03:42:15;;;;;;;20.23;12.75;;;2.50;99.90;;;;;;5106614;28;20040;-73
2023/01/19 03:44:42;;;;;;;19.55;12.02;;;2.50;99.90;;;;;;5072132;28;20073;-75
2023/01/19 03:47:12;;;;;;;22.33;12.10;;;2.50;99.90;;;;;;5105179;28;20039;-74
2023/01/19 03:49:41;;;;;;;18.50;12.73;;;2.50;99.90;;;;;;5085815;28;20507;-74
2023/01/19 03:52:07;;;;;;;18.95;12.30;;;2.40;99.90;;;;;;5100497;28;20745;-74
2023/01/19 03:54:33;;;;;;;18.80;12.43;;;2.40;99.90;;;;;;5088238;28;20111;-73
2023/01/19 03:56:59;;;;;;;21.60;13.40;;;2.50;99.90;;;;;;5087792;28;20038;-74
2023/01/19 03:59:24;;;;;;;20.50;12.70;;;2.50;99.90;;;;;;5073849;28;20031;-73
2023/01/19 04:01:50;;;;;;;22.73;13.00;;;2.50;99.90;;;;;;5105718;28;20097;-74
2023/01/19 04:04:16;;;;;;;22.45;13.70;;;2.50;99.90;;;;;;5106724;28;20074;-74
2023/01/19 04:06:42;;;;;;;20.05;12.45;;;2.50;99.90;;;;;;5092852;28;20055;-73
2023/01/19 04:09:08;;;;;;;22.67;13.93;;;2.50;99.90;;;;;;5108926;28;20090;-74
2023/01/19 04:11:33;;;;;;;24.60;14.57;;;2.50;99.90;;;;;;5086869;28;20074;-74
2023/01/19 04:14:00;;;;;;;21.92;13.27;;;2.50;99.90;;;;;;5085603;28;20035;-74
2023/01/19 04:16:26;;;;;;;24.02;13.65;;;2.50;99.90;;;;;;5105731;28;20048;-74
2023/01/19 04:18:52;;;;;;;22.05;13.88;;;2.50;99.90;;;;;;5105579;28;20123;-74
2023/01/19 04:21:19;;;;;;;23.58;15.32;;;2.50;99.90;;;;;;5102440;28;20059;-75
2023/01/19 04:23:45;;;;;;;24.85;14.55;;;2.50;99.90;;;;;;5087360;28;20044;-74
2023/01/19 04:26:11;;;;;;;22.60;14.73;;;2.50;99.90;;;;;;5071486;28;20024;-75
2023/01/19 04:28:37;;;;;;;23.60;15.57;;;2.50;99.90;;;;;;5104867;28;20027;-74
2023/01/19 04:31:06;;;;;;;24.85;14.23;;;2.50;99.90;;;;;;5071755;28;20731;-74
2023/01/19 04:33:33;;;;;;;25.17;14.68;;;2.50;99.90;;;;;;5104975;28;20066;-75
2023/01/19 04:35:59;;;;;;;25.70;14.70;;;2.50;99.90;;;;;;5088051;28;20028;-74
2023/01/19 04:38:25;;;;;;;25.08;14.43;;;2.50;99.90;;;;;;5086089;28;20139;-74
2023/01/19 04:40:52;;;;;;;21.90;14.15;;;2.50;99.90;;;;;;5088411;28;20505;-74
2023/01/19 04:43:19;;;;;;;23.58;14.80;;;2.50;99.90;;;;;;5084964;28;20031;-73
2023/01/19 04:45:46;;;;;;;26.60;14.88;;;2.50;99.90;;;;;;5084657;28;20020;-74
2023/01/19 04:48:12;;;;;;;27.10;15.40;;;2.50;99.90;;;;;;5105053;28;20059;-74
2023/01/19 04:50:38;;;;;;;25.70;14.02;;;2.50;99.90;;;;;;5085678;28;20558;-74
2023/01/19 04:53:04;;;;;;;25.65;15.20;;;2.50;99.90;;;;;;5087388;28;20023;-74
2023/01/19 04:55:30;;;;;;;25.13;14.60;;;2.50;99.90;;;;;;5087649;28;20027;-74
2023/01/19 04:57:56;;;;;;;26.83;14.85;;;2.50;99.90;;;;;;5092213;27;20539;-73
2023/01/19 05:00:22;;;;;;;27.88;15.65;;;2.50;99.90;;;;;;5088483;27;20032;-75
2023/01/19 05:02:48;;;;;;;27.50;15.88;;;2.50;99.90;;;;;;5110017;28;20046;-76
2023/01/19 05:05:14;;;;;;;24.48;14.95;;;2.50;99.90;;;;;;5107657;28;20491;-75
2023/01/19 05:07:39;;;;;;;25.67;15.35;;;2.50;99.90;;;;;;5109705;28;20100;-75
2023/01/19 05:10:06;;;;;;;27.75;15.15;;;2.50;99.90;;;;;;5071298;28;20368;-73
2023/01/19 05:12:32;;;;;;;28.73;15.20;;;2.60;99.90;;;;;;5106941;28;20049;-75
2023/01/19 05:14:58;;;;;;;24.80;15.00;;;2.50;99.90;;;;;;5085848;27;20153;-74
2023/01/19 05:17:24;;;;;;;25.33;14.70;;;2.60;99.90;;;;;;5084854;28;20055;-74
2023/01/19 05:19:50;;;;;;;27.63;15.73;;;2.60;99.90;;;;;;5082144;28;20039;-74
2023/01/19 05:22:16;;;;;;;27.95;15.88;;;2.60;99.90;;;;;;5089853;28;20031;-75
2023/01/19 05:24:42;;;;;;;27.25;15.60;;;2.50;99.90;;;;;;5076222;28;20036;-74
2023/01/19 05:27:07;;;;;;;28.80;16.75;;;2.50;99.90;;;;;;5061971;28;20655;-75
2023/01/19 05:29:33;;;;;;;25.10;15.90;;;2.50;99.90;;;;;;5083586;28;20035;-76
2023/01/19 05:31:59;;;;;;;26.25;16.15;;;2.50;99.90;;;;;;5080829;27;20043;-75
2023/01/19 05:34:25;;;;;;;27.42;15.20;;;2.60;99.90;;;;;;5058867;28;20032;-75
2023/01/19 05:36:51;;;;;;;28.58;17.33;;;2.60;99.90;;;;;;5083851;28;20039;-76
2023/01/19 05:39:17;;;;;;;28.88;16.02;;;2.60;99.90;;;;;;5081352;28;20035;-77
2023/01/19 05:41:44;;;;;;;25.80;15.48;;;2.60;99.90;;;;;;5081105;27;20181;-75
2023/01/19 05:44:10;;;;;;;23.75;15.50;;;2.60;99.90;;;;;;5086831;28;20036;-76
2023/01/19 05:46:36;;;;;;;25.48;14.93;;;2.60;99.90;;;;;;5073137;28;20124;-75
2023/01/19 05:49:03;;;;;;;26.80;16.38;;;2.60;99.90;;;;;;5073081;28;20028;-76
2023/01/19 05:51:44;;;;;;;29.13;17.33;;;2.60;99.90;;;;;;5071931;28;20071;-76
2023/01/19 05:54:13;;;;;;;25.47;16.03;;;2.60;99.90;;;;;;5068107;28;20066;-75
2023/01/19 05:56:39;;;;;;;24.38;15.63;;;2.60;99.90;;;;;;5061343;28;20027;-75
2023/01/19 05:59:06;;;;;;;28.02;15.90;;;2.50;99.90;;;;;;5065161;28;20819;-75
2023/01/19 06:01:36;;;;;;;24.05;16.25;;;2.60;99.90;;;;;;5080316;28;20074;-75
2023/01/19 06:04:02;;;;;;;25.73;16.17;;;2.60;99.90;;;;;;5063786;28;20033;-75
2023/01/19 06:06:27;;;;;;;28.52;16.80;;;2.60;99.90;;;;;;5083255;28;20384;-74
2023/01/19 06:08:53;;;;;;;28.05;17.35;;;2.60;99.90;;;;;;5086334;28;20115;-76
2023/01/19 06:11:19;;;;;;;29.38;17.33;;;2.60;99.90;;;;;;5088145;28;20019;-76
2023/01/19 06:13:46;;;;;;;27.40;16.98;;;2.60;99.90;;;;;;5087883;28;20070;-76
2023/01/19 06:16:13;;;;;;;30.75;17.80;;;2.60;99.90;;;;;;5104082;28;20121;-75
2023/01/19 06:18:39;;;;;;;33.38;18.40;;;2.60;99.90;;;;;;5106209;27;20027;-75
2023/01/19 06:21:09;;;;;;;26.30;16.83;;;2.60;99.90;;;;;;5104090;28;20464;-75
2023/01/19 06:23:35;;;;;;;29.85;18.02;;;2.60;99.90;;;;;;5086480;28;20058;-76
2023/01/19 06:26:02;;;;;;;29.40;18.45;;;2.60;99.90;;;;;;5086020;28;20069;-75
2023/01/19 06:28:27;;;;;;;33.10;17.85;;;2.60;99.90;;;;;;5085862;28;20040;-74
2023/01/19 06:30:54;;;;;;;28.90;18.17;;;2.60;99.90;;;;;;5078185;28;20580;-74
2023/01/19 06:33:21;;;;;;;26.52;16.70;;;2.60;99.90;;;;;;5099397;27;20028;-74
2023/01/19 06:35:49;;;;;;;25.08;15.95;;;2.60;99.90;;;;;;5086325;28;20055;-74
2023/01/19 06:38:17;;;;;;;22.95;16.25;;;2.60;99.90;;;;;;5104552;28;20444;-75
2023/01/19 06:40:43;;;;;;;26.70;16.77;;;2.50;99.90;;;;;;5086920;28;20027;-74
2023/01/19 06:43:10;;;;;;;24.20;15.88;;;2.50;99.90;;;;;;5085422;28;20036;-74
2023/01/19 06:45:37;;;;;;;26.58;16.13;;;2.50;99.90;;;;;;5088595;28;20042;-74
2023/01/19 06:48:03;;;;;;;25.80;16.23;;;2.60;99.90;;;;;;5074918;28;20031;-73
2023/01/19 06:50:29;;;;;;;28.88;17.23;;;2.60;99.90;;;;;;5085779;28;20032;-74
2023/01/19 06:52:55;;;;;;;30.27;17.13;;;2.60;99.90;;;;;;5084857;28;20592;-74
2023/01/19 06:55:20;;;;;;;25.33;16.42;;;2.60;99.90;;;;;;5104138;28;20031;-74
2023/01/19 06:57:46;;;;;;;25.90;16.55;;;2.60;99.90;;;;;;5103286;28;20099;-74
2023/01/19 07:00:13;;;;;;;26.17;16.80;;;2.60;99.90;;;;;;5107624;28;20032;-75
2023/01/19 07:02:42;;;;;;;25.60;16.10;;;2.60;99.90;;;;;;5090274;28;20073;-76
2023/01/19 07:05:13;;;;;;;23.58;16.48;;;2.60;99.90;;;;;;5076245;28;20027;-75
2023/01/19 07:07:39;;;;;;;26.33;16.63;;;2.60;99.90;;;;;;5091013;28;20415;-74
2023/01/19 07:10:15;;;;;;;23.90;15.70;;;2.60;99.90;;;;;;5084789;28;20042;-74
2023/01/19 07:12:42;;;;;;;25.83;15.98;;;2.60;99.90;;;;;;5083189;27;20031;-74
2023/01/19 07:15:10;;;;;;;28.20;17.02;;;2.60;99.90;;;;;;5067281;28;20119;-74
2023/01/19 07:17:36;;;;;;;26.65;16.52;;;2.60;99.90;;;;;;5083560;27;20059;-78
2023/01/19 07:20:02;;;;;;;25.23;16.48;;;2.60;99.90;;;;;;5100907;28;20031;-74
2023/01/19 07:22:28;;;;;;;25.13;17.13;;;2.60;99.90;;;;;;5108338;28;20035;-75
2023/01/19 07:24:55;;;;;;;28.65;17.45;;;2.60;99.90;;;;;;5106432;28;20373;-73
2023/01/19 07:27:21;;;;;;;29.50;18.25;;;2.60;99.90;;;;;;5093311;28;20034;-73
2023/01/19 07:29:46;;;;;;;28.42;18.10;;;2.60;99.90;;;;;;5112223;28;20024;-73
2023/01/19 07:32:15;;;;;;;32.28;18.73;;;2.60;99.90;;;;;;5088819;28;20036;-73
2023/01/19 07:34:41;;;;;;;33.58;18.58;;;2.60;99.90;;;;;;5072487;28;20040;-74
2023/01/19 07:37:07;;;;;;;33.78;19.63;;;2.60;99.90;;;;;;5087048;28;20036;-74
2023/01/19 07:39:35;;;;;;;33.60;19.13;;;2.50;99.90;;;;;;5084948;28;20027;-74
2023/01/19 07:42:01;;;;;;;32.90;19.88;;;2.50;99.90;;;;;;5090710;28;20032;-73
2023/01/19 07:44:27;;;;;;;32.35;19.48;;;2.60;99.90;;;;;;5087630;28;20134;-74
2023/01/19 07:46:52;;;;;;;33.40;19.00;;;2.60;99.90;;;;;;5105716;28;20148;-73
2023/01/19 07:49:19;;;;;;;40.58;20.25;;;2.50;99.90;;;;;;5106548;28;20512;-74
2023/01/19 07:51:45;;;;;;;33.55;19.92;;;2.60;99.90;;;;;;5088378;28;20043;-73
2023/01/19 07:54:11;;;;;;;35.38;20.38;;;2.50;99.90;;;;;;5103070;28;20128;-74
2023/01/19 07:56:37;;;;;;;36.47;20.02;;;2.60;99.90;;;;;;5107755;28;20096;-73
2023/01/19 07:59:02;;;;;;;33.67;20.55;;;2.50;99.90;;;;;;5105350;28;20510;-74
2023/01/19 08:01:28;;;;;;;33.58;19.67;;;2.60;99.90;;;;;;5107715;28;20036;-74
2023/01/19 08:03:54;;;;;;;34.15;20.00;;;2.60;99.90;;;;;;5087915;28;20023;-74
2023/01/19 08:06:22;;;;;;;33.03;19.45;;;2.60;99.90;;;;;;5088641;28;20400;-73
2023/01/19 08:08:48;;;;;;;34.75;20.83;;;2.60;99.90;;;;;;5086536;28;20020;-74
2023/01/19 08:11:15;;;;;;;34.25;20.52;;;2.60;99.90;;;;;;5102420;28;20034;-73
2023/01/19 08:13:42;;;;;;;36.83;21.17;;;2.60;99.90;;;;;;5084423;28;20039;-73
2023/01/19 08:16:09;;;;;;;34.22;20.58;;;2.70;99.90;;;;;;5087909;28;20028;-73
2023/01/19 08:18:34;;;;;;;33.25;19.38;;;2.70;99.90;;;;;;5085977;28;20031;-75
2023/01/19 08:21:00;;;;;;;32.30;18.88;;;2.70;99.90;;;;;;5108620;28;20186;-74
2023/01/19 08:23:29;;;;;;;33.22;19.15;;;2.70;99.90;;;;;;5108037;28;20122;-74
2023/01/19 08:25:55;;;;;;;30.67;18.42;;;2.70;99.90;;;;;;5105689;28;20495;-74
2023/01/19 08:28:21;;;;;;;31.77;18.90;;;2.70;99.90;;;;;;5088549;28;20051;-74
2023/01/19 08:30:52;;;;;;;31.67;19.30;;;2.80;99.90;;;;;;5107447;28;20041;-74
2023/01/19 08:33:19;;;;;;;32.10;18.55;;;2.80;99.90;;;;;;5110651;28;20055;-74
2023/01/19 08:35:48;;;;;;;31.80;18.70;;;2.90;99.90;;;;;;5092636;28;20032;-74
2023/01/19 08:38:14;;;;;;;29.38;18.13;;;2.80;99.90;;;;;;5092439;28;20055;-75
2023/01/19 08:40:41;;;;;;;29.33;17.70;;;2.90;99.90;;;;;;5093273;28;20128;-76
2023/01/19 08:43:12;;;;;;;29.80;16.90;;;2.90;99.90;;;;;;5091562;28;20063;-73
2023/01/19 08:45:41;;;;;;;28.85;16.38;;;2.90;99.90;;;;;;5107971;28;20185;-76
2023/01/19 08:48:07;;;;;;;30.92;16.83;;;2.90;99.90;;;;;;5104961;28;20055;-74
2023/01/19 08:50:33;;;;;;;30.15;17.08;;;2.90;99.90;;;;;;5093794;28;20137;-75
2023/01/19 08:53:01;;;;;;;26.48;17.02;;;2.90;99.90;;;;;;5071537;28;20265;-75
2023/01/19 08:55:28;;;;;;;29.35;18.10;;;3.00;99.90;;;;;;5111767;28;20038;-74
2023/01/19 08:57:58;;;;;;;29.23;16.88;;;3.00;99.90;;;;;;5112893;28;20035;-75
2023/01/19 09:00:26;;;;;;;27.17;15.82;;;3.00;99.90;;;;;;5091823;28;20067;-74
2023/01/19 09:02:52;;;;;;;27.52;15.70;;;3.10;99.90;;;;;;5090908;28;20038;-74
2023/01/19 09:05:18;;;;;;;27.75;16.52;;;3.10;99.90;;;;;;5094110;28;20031;-75
2023/01/19 09:07:46;;;;;;;31.00;16.80;;;3.10;99.90;;;;;;5093999;28;20055;-74
2023/01/19 09:10:13;;;;;;;26.35;15.93;;;3.10;99.90;;;;;;5097730;28;20020;-74
2023/01/19 09:12:39;;;;;;;29.23;18.13;;;3.10;99.90;;;;;;5093337;28;20544;-76
2023/01/19 09:15:06;;;;;;;32.17;17.30;;;3.10;99.90;;;;;;5082253;27;20059;-74
2023/01/19 09:17:32;;;;;;;32.45;17.95;;;3.10;99.90;;;;;;5104038;27;20028;-76
2023/01/19 09:19:58;;;;;;;32.03;19.17;;;3.10;99.90;;;;;;5110026;28;20041;-74
2023/01/19 09:22:24;;;;;;;29.90;17.42;;;3.10;99.90;;;;;;5112369;28;20030;-74
2023/01/19 09:24:49;;;;;;;33.30;18.58;;;3.10;99.90;;;;;;5110487;27;20120;-74
2023/01/19 09:27:15;;;;;;;30.75;18.23;;;3.00;99.90;;;;;;5094023;28;20066;-74
2023/01/19 09:29:41;;;;;;;32.10;18.10;;;3.00;99.90;;;;;;5092358;28;20032;-73
2023/01/19 09:32:08;;;;;;;31.20;19.13;;;3.00;99.90;;;;;;5094237;28;20098;-74
2023/01/19 09:34:33;;;;;;;30.20;17.80;;;3.00;99.90;;;;;;5091320;28;20039;-75
2023/01/19 09:36:59;;;;;;;29.05;18.25;;;3.00;99.90;;;;;;5109660;28;20039;-74
2023/01/19 09:39:25;;;;;;;31.17;18.58;;;3.00;99.90;;;;;;5091984;28;20024;-74
2023/01/19 09:42:32;;;;;;;31.80;18.45;;;3.00;99.90;;;;;;5088216;28;20032;-75
2023/01/19 09:45:01;;;;;;;34.63;19.83;;;3.10;99.90;;;;;;5072062;28;20565;-75
2023/01/19 09:47:29;;;;;;;29.10;17.33;;;3.10;99.90;;;;;;5089990;28;20034;-74
2023/01/19 09:50:02;;;;;;;29.92;17.50;;;3.10;99.90;;;;;;5090990;28;20476;-74
2023/01/19 09:52:31;;;;;;;27.73;16.98;;;3.00;99.90;;;;;;5092169;28;20435;-75
2023/01/19 09:54:57;;;;;;;32.13;16.85;;;3.10;99.90;;;;;;5109389;28;20043;-77
2023/01/19 09:57:26;;;;;;;28.95;17.48;;;3.10;99.90;;;;;;5092983;28;20051;-74
2023/01/19 09:59:56;;;;;;;27.52;18.17;;;3.10;99.90;;;;;;5111666;28;20359;-74
2023/01/19 10:02:50;;;;;;;30.98;17.25;;;3.10;99.90;;;;;;5111828;28;20035;-75
2023/01/19 10:05:43;;;;;;;25.33;15.80;;;3.10;99.90;;;;;;5111737;28;20084;-75
2023/01/19 10:08:12;;;;;;;27.77;16.63;;;3.20;99.90;;;;;;5095413;28;20028;-75
2023/01/19 10:10:44;;;;;;;27.30;16.77;;;3.20;99.90;;;;;;5092430;28;20024;-74
2023/01/19 10:13:28;;;;;;;27.98;16.85;;;3.20;99.90;;;;;;5090922;28;20027;-78
2023/01/19 10:16:30;;;;;;;25.30;16.70;;;3.20;99.90;;;;;;5090520;28;20509;-74
2023/01/19 10:19:15;;;;;;;26.65;16.05;;;3.20;99.90;;;;;;5106833;28;20325;-75
2023/01/19 10:21:44;;;;;;;24.35;15.68;;;3.20;99.90;;;;;;5090677;28;20094;-74
2023/01/19 10:24:52;;;;;;;26.83;16.98;;;3.20;99.90;;;;;;5107122;28;20061;-75
2023/01/19 10:27:22;;;;;;;31.45;17.42;;;3.20;99.90;;;;;;5061022;28;20055;-77
2023/01/19 10:29:48;;;;;;;24.48;15.70;;;3.20;99.90;;;;;;5060471;28;20029;-76
2023/01/19 10:32:39;;;;;;;27.65;16.70;;;3.30;99.90;;;;;;5061512;28;20041;-75
2023/01/19 10:35:25;;;;;;;28.60;15.70;;;3.30;99.90;;;;;;5029055;28;20077;-75
2023/01/19 10:37:57;;;;;;;26.00;16.42;;;3.40;99.90;;;;;;5065548;28;20036;-75
2023/01/19 10:40:35;;;;;;;24.77;15.77;;;3.40;99.90;;;;;;5063026;28;20040;-74
2023/01/19 10:43:21;;;;;;;23.58;15.23;;;3.40;99.90;;;;;;5043252;28;20598;-73
2023/01/19 10:45:49;;;;;;;28.10;16.08;;;3.30;99.90;;;;;;5044724;28;20044;-75
2023/01/19 10:48:15;;;;;;;26.10;16.27;;;3.30;99.90;;;;;;5045766;28;20693;-75
2023/01/19 10:50:41;;;;;;;23.40;15.25;;;3.30;99.90;;;;;;5065879;28;20036;-75
2023/01/19 10:53:21;;;;;;;25.98;15.80;;;3.30;99.90;;;;;;5057163;28;22013;-74
2023/01/19 10:55:46;;;;;;;28.33;15.45;;;3.30;99.90;;;;;;5070739;28;20100;-74
2023/01/19 10:58:29;;;;;;;27.05;15.02;;;3.30;99.90;;;;;;5063293;28;20043;-74
2023/01/19 11:01:10;;;;;;;27.02;16.08;;;3.20;99.90;;;;;;5088051;28;20028;-74
2023/01/19 11:03:36;;;;;;;26.83;16.08;;;3.20;99.90;;;;;;5090589;28;20126;-74
2023/01/19 11:06:17;;;;;;;26.30;16.05;;;3.20;99.90;;;;;;5091870;28;20103;-73
2023/01/19 11:08:45;;;;;;;27.35;15.45;;;3.20;99.90;;;;;;5089778;28;20024;-74
2023/01/19 11:11:11;;;;;;;25.70;15.13;;;3.20;99.90;;;;;;5073860;28;20096;-74
2023/01/19 11:13:42;;;;;;;27.40;16.25;;;3.20;99.90;;;;;;5089576;28;20043;-74
2023/01/19 11:16:25;;;;;;;27.23;16.25;;;3.30;99.90;;;;;;5089362;28;20084;-75
2023/01/19 11:18:53;;;;;;;27.80;17.30;;;3.30;99.90;;;;;;5107862;28;20024;-74
2023/01/19 11:21:23;;;;;;;29.23;16.30;;;3.40;99.90;;;;;;5109198;28;20024;-73
2023/01/19 11:24:12;;;;;;;27.35;17.52;;;3.30;99.90;;;;;;5109622;28;20080;-74
2023/01/19 11:26:49;;;;;;;24.73;15.32;;;3.40;99.90;;;;;;4989804;28;20513;-73
2023/01/19 11:29:23;;;;;;;25.50;15.98;;;3.40;99.90;;;;;;4965855;28;20033;-74
2023/01/19 11:31:51;;;;;;;24.65;15.65;;;3.40;99.90;;;;;;4997965;28;20069;-74
2023/01/19 11:34:34;;;;;;;26.50;16.33;;;3.40;99.90;;;;;;5008791;28;20552;-74
2023/01/19 11:37:22;;;;;;;26.02;15.90;;;3.30;99.90;;;;;;5010163;28;20571;-73
2023/01/19 11:39:50;;;;;;;25.52;15.57;;;3.40;99.90;;;;;;5009504;28;20026;-74
2023/01/19 11:42:17;;;;;;;24.13;15.35;;;3.40;99.90;;;;;;5007613;28;20040;-74
2023/01/19 11:45:06;;;;;;;29.15;16.83;;;3.30;99.90;;;;;;5009987;28;20119;-72
2023/01/19 11:47:44;;;;;;;26.63;15.43;;;3.40;99.90;;;;;;5008407;28;20037;-76
2023/01/19 11:50:23;;;;;;;27.80;16.45;;;3.40;99.90;;;;;;5009972;28;20044;-76
2023/01/19 11:53:10;;;;;;;28.23;15.10;;;3.40;99.90;;;;;;5009844;28;20400;-75
2023/01/19 11:56:12;;;;;;;23.40;15.00;;;3.40;99.90;;;;;;5009992;28;20033;-74
2023/01/19 11:58:40;;;;;;;24.15;14.18;;;3.40;99.90;;;;;;5009599;28;20043;-75
2023/01/19 12:01:29;;;;;;;24.23;15.27;;;3.50;99.90;;;;;;5009338;28;20052;-74
2023/01/19 12:04:13;;;;;;;23.45;14.93;;;3.50;99.90;;;;;;5033943;28;20038;-73
2023/01/19 12:06:43;;;;;;;26.38;14.85;;;3.60;99.90;;;;;;5092668;28;20030;-74
2023/01/19 12:09:09;;;;;;;23.50;14.55;;;3.50;99.90;;;;;;5113010;28;20023;-74
2023/01/19 12:11:41;;;;;;;28.02;15.65;;;3.50;99.90;;;;;;5092550;28;20169;-75
2023/01/19 12:14:22;;;;;;;27.08;15.93;;;3.50;99.90;;;;;;5110843;28;20039;-74
2023/01/19 12:16:51;;;;;;;25.08;15.50;;;3.50;99.90;;;;;;5093328;28;20494;-74
2023/01/19 12:19:23;;;;;;;23.80;14.73;;;3.50;99.90;;;;;;5112962;27;20047;-74
2023/01/19 12:21:51;;;;;;;24.73;15.32;;;3.50;99.90;;;;;;5111722;28;20395;-74
2023/01/19 12:24:33;;;;;;;27.17;15.57;;;3.50;99.90;;;;;;5113027;28;20038;-74
2023/01/19 12:27:14;;;;;;;26.55;15.05;;;3.50;99.90;;;;;;5084567;28;20024;-73
2023/01/19 12:29:40;;;;;;;21.70;14.77;;;3.50;99.90;;;;;;5102712;28;20095;-74
2023/01/19 12:32:12;;;;;;;26.30;15.68;;;3.50;99.90;;;;;;5080503;28;20484;-74
2023/01/19 12:34:46;;;;;;;25.98;15.05;;;3.60;99.90;;;;;;5110186;28;20031;-74
2023/01/19 12:37:34;;;;;;;24.00;14.10;;;3.60;99.90;;;;;;5117412;28;20063;-74
2023/01/19 12:40:27;;;;;;;25.02;13.75;;;3.50;99.90;;;;;;5086288;28;20099;-75
2023/01/19 12:43:04;;;;;;;23.73;14.20;;;3.50;99.90;;;;;;5109410;28;20102;-75
2023/01/19 12:45:33;;;;;;;23.40;14.90;;;3.50;99.90;;;;;;5111682;28;20032;-74
2023/01/19 12:48:01;;;;;;;24.45;14.57;;;3.50;99.90;;;;;;5107855;28;20059;-78
2023/01/19 12:50:33;;;;;;;22.77;12.95;;;3.50;99.90;;;;;;5111216;28;20501;-75
2023/01/19 12:53:01;;;;;;;22.17;12.95;;;3.50;99.90;;;;;;5111713;28;20028;-74
2023/01/19 12:55:29;;;;;;;55.35;26.42;;;3.40;99.90;;;;;;5109753;28;20051;-74
2023/01/19 12:58:00;;;;;;;1159.50;615.47;;;3.80;99.90;;;;;;5111017;28;20122;-73
2023/01/19 13:00:38;;;;;;;113.65;72.95;;;3.70;99.90;;;;;;5121849;28;20047;-74
2023/01/19 13:03:26;;;;;;;26.10;16.10;;;3.60;99.90;;;;;;5105732;28;20465;-73